sensor_id;sensor_type;location;lat;lon;timestamp;P1;durP1;ratioP1;P2;durP2;ratioP2
23086;SDS011;11712;51.134;4.156;2022-07-04T00:00:00;0.50;;;0.50;;
23086;SDS011;11712;51.134;4.156;2022-07-04T00:02:25;0.47;;;0.47;;
23086;SDS011;11712;51.134;4.156;2022-07-04T00:04:51;0.40;;;0.40;;
23086;SDS011;11712;51.134;4.156;2022-07-04T00:07:17;0.40;;;0.40;;
23086;SDS011;11712;51.134;4.156;2022-07-04T00:09:42;0.40;;;0.40;;
23086;SDS011;11712;51.134;4.156;2022-07-04T00:12:08;0.40;;;0.40;;
23086;SDS011;11712;51.134;4.156;2022-07-04T00:14:34;0.40;;;0.40;;
23086;SDS011;11712;51.134;4.156;2022-07-04T00:17:00;0.40;;;0.40;;
23086;SDS011;11712;51.134;4.156;2022-07-04T00:19:26;0.40;;;0.40;;
23086;SDS011;11712;51.134;4.156;2022-07-04T00:21:52;0.40;;;0.40;;
23086;SDS011;11712;51.134;4.156;2022-07-04T00:24:18;0.43;;;0.43;;
23086;SDS011;11712;51.134;4.156;2022-07-04T00:26:43;0.40;;;0.40;;
23086;SDS011;11712;51.134;4.156;2022-07-04T00:29:09;0.40;;;0.40;;
23086;SDS011;11712;51.134;4.156;2022-07-04T00:31:35;0.40;;;0.40;;
23086;SDS011;11712;51.134;4.156;2022-07-04T00:34:01;0.45;;;0.45;;
23086;SDS011;11712;51.134;4.156;2022-07-04T00:36:26;0.40;;;0.40;;
23086;SDS011;11712;51.134;4.156;2022-07-04T00:38:52;0.40;;;0.40;;
23086;SDS011;11712;51.134;4.156;2022-07-04T00:41:18;0.40;;;0.40;;
23086;SDS011;11712;51.134;4.156;2022-07-04T00:43:44;0.40;;;0.40;;
23086;SDS011;11712;51.134;4.156;2022-07-04T00:46:25;0.40;;;0.40;;
23086;SDS011;11712;51.134;4.156;2022-07-04T00:48:50;0.45;;;0.45;;
23086;SDS011;11712;51.134;4.156;2022-07-04T00:51:16;0.40;;;0.40;;
23086;SDS011;11712;51.134;4.156;2022-07-04T00:53:42;0.40;;;0.40;;
23086;SDS011;11712;51.134;4.156;2022-07-04T00:56:08;0.40;;;0.40;;
23086;SDS011;11712;51.134;4.156;2022-07-04T00:58:34;0.50;;;0.50;;
23086;SDS011;11712;51.134;4.156;2022-07-04T01:01:00;0.40;;;0.40;;
23086;SDS011;11712;51.134;4.156;2022-07-04T01:03:26;0.40;;;0.40;;
23086;SDS011;11712;51.134;4.156;2022-07-04T01:05:51;0.40;;;0.40;;
23086;SDS011;11712;51.134;4.156;2022-07-04T01:08:17;0.40;;;0.40;;
23086;SDS011;11712;51.134;4.156;2022-07-04T01:10:43;0.40;;;0.40;;
23086;SDS011;11712;51.134;4.156;2022-07-04T01:13:12;0.40;;;0.40;;
23086;SDS011;11712;51.134;4.156;2022-07-04T01:15:47;0.43;;;0.43;;
23086;SDS011;11712;51.134;4.156;2022-07-04T01:18:14;0.40;;;0.40;;
23086;SDS011;11712;51.134;4.156;2022-07-04T01:20:40;0.43;;;0.43;;
23086;SDS011;11712;51.134;4.156;2022-07-04T01:23:06;0.40;;;0.40;;
23086;SDS011;11712;51.134;4.156;2022-07-04T01:25:32;0.40;;;0.40;;
23086;SDS011;11712;51.134;4.156;2022-07-04T01:28:01;0.40;;;0.40;;
23086;SDS011;11712;51.134;4.156;2022-07-04T01:30:28;0.40;;;0.40;;
23086;SDS011;11712;51.134;4.156;2022-07-04T01:32:55;0.40;;;0.40;;
23086;SDS011;11712;51.134;4.156;2022-07-04T01:35:21;0.40;;;0.40;;
23086;SDS011;11712;51.134;4.156;2022-07-04T01:37:48;0.40;;;0.40;;
23086;SDS011;11712;51.134;4.156;2022-07-04T01:40:14;0.40;;;0.40;;
23086;SDS011;11712;51.134;4.156;2022-07-04T01:42:40;0.40;;;0.40;;
23086;SDS011;11712;51.134;4.156;2022-07-04T01:45:07;0.40;;;0.40;;
23086;SDS011;11712;51.134;4.156;2022-07-04T01:47:33;0.40;;;0.40;;
23086;SDS011;11712;51.134;4.156;2022-07-04T01:50:00;0.40;;;0.40;;
23086;SDS011;11712;51.134;4.156;2022-07-04T01:52:26;0.43;;;0.43;;
23086;SDS011;11712;51.134;4.156;2022-07-04T01:54:52;0.40;;;0.40;;
23086;SDS011;11712;51.134;4.156;2022-07-04T01:57:17;0.40;;;0.40;;
23086;SDS011;11712;51.134;4.156;2022-07-04T01:59:43;0.40;;;0.40;;
23086;SDS011;11712;51.134;4.156;2022-07-04T02:02:27;0.40;;;0.40;;
23086;SDS011;11712;51.134;4.156;2022-07-04T02:04:53;0.40;;;0.40;;
23086;SDS011;11712;51.134;4.156;2022-07-04T02:07:18;0.40;;;0.40;;
23086;SDS011;11712;51.134;4.156;2022-07-04T02:09:44;0.40;;;0.40;;
23086;SDS011;11712;51.134;4.156;2022-07-04T02:12:10;0.50;;;0.50;;
23086;SDS011;11712;51.134;4.156;2022-07-04T02:14:54;0.40;;;0.40;;
23086;SDS011;11712;51.134;4.156;2022-07-04T02:17:20;0.50;;;0.50;;
23086;SDS011;11712;51.134;4.156;2022-07-04T02:19:46;0.43;;;0.43;;
23086;SDS011;11712;51.134;4.156;2022-07-04T02:22:13;0.50;;;0.50;;
23086;SDS011;11712;51.134;4.156;2022-07-04T02:24:39;0.40;;;0.40;;
23086;SDS011;11712;51.134;4.156;2022-07-04T02:27:05;0.40;;;0.40;;
23086;SDS011;11712;51.134;4.156;2022-07-04T02:29:31;0.40;;;0.40;;
23086;SDS011;11712;51.134;4.156;2022-07-04T02:31:57;0.40;;;0.40;;
23086;SDS011;11712;51.134;4.156;2022-07-04T02:34:22;0.40;;;0.40;;
23086;SDS011;11712;51.134;4.156;2022-07-04T02:36:48;0.40;;;0.40;;
23086;SDS011;11712;51.134;4.156;2022-07-04T02:39:14;0.40;;;0.40;;
23086;SDS011;11712;51.134;4.156;2022-07-04T02:41:40;0.40;;;0.40;;
23086;SDS011;11712;51.134;4.156;2022-07-04T02:44:05;0.40;;;0.40;;
23086;SDS011;11712;51.134;4.156;2022-07-04T02:46:31;0.40;;;0.40;;
23086;SDS011;11712;51.134;4.156;2022-07-04T02:49:00;0.50;;;0.50;;
23086;SDS011;11712;51.134;4.156;2022-07-04T02:51:26;0.40;;;0.40;;
23086;SDS011;11712;51.134;4.156;2022-07-04T02:53:52;0.40;;;0.40;;
23086;SDS011;11712;51.134;4.156;2022-07-04T02:56:18;0.50;;;0.50;;
23086;SDS011;11712;51.134;4.156;2022-07-04T02:58:44;0.40;;;0.40;;
23086;SDS011;11712;51.134;4.156;2022-07-04T03:01:10;0.45;;;0.45;;
23086;SDS011;11712;51.134;4.156;2022-07-04T03:03:37;0.40;;;0.40;;
23086;SDS011;11712;51.134;4.156;2022-07-04T03:06:04;0.50;;;0.50;;
23086;SDS011;11712;51.134;4.156;2022-07-04T03:08:31;0.50;;;0.50;;
23086;SDS011;11712;51.134;4.156;2022-07-04T03:10:56;0.40;;;0.40;;
23086;SDS011;11712;51.134;4.156;2022-07-04T03:13:22;0.40;;;0.40;;
23086;SDS011;11712;51.134;4.156;2022-07-04T03:15:49;0.40;;;0.40;;
23086;SDS011;11712;51.134;4.156;2022-07-04T03:18:15;0.40;;;0.40;;
23086;SDS011;11712;51.134;4.156;2022-07-04T03:20:41;0.40;;;0.40;;
23086;SDS011;11712;51.134;4.156;2022-07-04T03:23:06;0.40;;;0.40;;
23086;SDS011;11712;51.134;4.156;2022-07-04T03:25:32;0.40;;;0.40;;
23086;SDS011;11712;51.134;4.156;2022-07-04T03:27:59;0.40;;;0.40;;
23086;SDS011;11712;51.134;4.156;2022-07-04T03:30:24;0.40;;;0.40;;
23086;SDS011;11712;51.134;4.156;2022-07-04T03:32:50;0.50;;;0.50;;
23086;SDS011;11712;51.134;4.156;2022-07-04T03:35:16;0.40;;;0.40;;
23086;SDS011;11712;51.134;4.156;2022-07-04T03:37:42;0.40;;;0.40;;
23086;SDS011;11712;51.134;4.156;2022-07-04T03:40:07;0.40;;;0.40;;
23086;SDS011;11712;51.134;4.156;2022-07-04T03:42:34;0.40;;;0.40;;
23086;SDS011;11712;51.134;4.156;2022-07-04T03:44:59;0.43;;;0.43;;
23086;SDS011;11712;51.134;4.156;2022-07-04T03:47:25;0.47;;;0.47;;
23086;SDS011;11712;51.134;4.156;2022-07-04T03:49:51;0.40;;;0.40;;
23086;SDS011;11712;51.134;4.156;2022-07-04T03:52:16;0.40;;;0.40;;
23086;SDS011;11712;51.134;4.156;2022-07-04T03:54:42;0.40;;;0.40;;
23086;SDS011;11712;51.134;4.156;2022-07-04T03:57:08;0.45;;;0.45;;
23086;SDS011;11712;51.134;4.156;2022-07-04T03:59:34;0.40;;;0.40;;
23086;SDS011;11712;51.134;4.156;2022-07-04T04:01:59;0.40;;;0.40;;
23086;SDS011;11712;51.134;4.156;2022-07-04T04:04:25;0.40;;;0.40;;
23086;SDS011;11712;51.134;4.156;2022-07-04T04:07:09;0.40;;;0.40;;
23086;SDS011;11712;51.134;4.156;2022-07-04T04:09:35;0.40;;;0.40;;
23086;SDS011;11712;51.134;4.156;2022-07-04T04:12:00;0.40;;;0.40;;
23086;SDS011;11712;51.134;4.156;2022-07-04T04:14:26;0.40;;;0.40;;
23086;SDS011;11712;51.134;4.156;2022-07-04T04:16:52;0.40;;;0.40;;
23086;SDS011;11712;51.134;4.156;2022-07-04T04:19:18;0.40;;;0.40;;
23086;SDS011;11712;51.134;4.156;2022-07-04T04:21:45;0.40;;;0.40;;
23086;SDS011;11712;51.134;4.156;2022-07-04T04:24:11;0.50;;;0.50;;
23086;SDS011;11712;51.134;4.156;2022-07-04T04:26:36;0.40;;;0.40;;
23086;SDS011;11712;51.134;4.156;2022-07-04T04:29:02;0.40;;;0.40;;
23086;SDS011;11712;51.134;4.156;2022-07-04T04:31:28;0.50;;;0.50;;
23086;SDS011;11712;51.134;4.156;2022-07-04T04:33:55;0.40;;;0.40;;
23086;SDS011;11712;51.134;4.156;2022-07-04T04:36:21;0.40;;;0.40;;
23086;SDS011;11712;51.134;4.156;2022-07-04T04:38:48;0.40;;;0.40;;
23086;SDS011;11712;51.134;4.156;2022-07-04T04:41:13;0.40;;;0.40;;
23086;SDS011;11712;51.134;4.156;2022-07-04T04:43:39;0.40;;;0.40;;
23086;SDS011;11712;51.134;4.156;2022-07-04T04:46:05;0.40;;;0.40;;
23086;SDS011;11712;51.134;4.156;2022-07-04T04:48:30;0.40;;;0.40;;
23086;SDS011;11712;51.134;4.156;2022-07-04T04:50:56;0.40;;;0.40;;
23086;SDS011;11712;51.134;4.156;2022-07-04T04:53:22;0.40;;;0.40;;
23086;SDS011;11712;51.134;4.156;2022-07-04T04:55:50;0.40;;;0.40;;
23086;SDS011;11712;51.134;4.156;2022-07-04T04:58:17;0.50;;;0.50;;
23086;SDS011;11712;51.134;4.156;2022-07-04T05:00:44;0.40;;;0.40;;
23086;SDS011;11712;51.134;4.156;2022-07-04T05:03:09;0.40;;;0.40;;
23086;SDS011;11712;51.134;4.156;2022-07-04T05:05:35;0.40;;;0.40;;
23086;SDS011;11712;51.134;4.156;2022-07-04T05:08:01;0.40;;;0.40;;
23086;SDS011;11712;51.134;4.156;2022-07-04T05:10:27;0.40;;;0.40;;
23086;SDS011;11712;51.134;4.156;2022-07-04T05:12:52;0.40;;;0.40;;
23086;SDS011;11712;51.134;4.156;2022-07-04T05:15:18;0.40;;;0.40;;
23086;SDS011;11712;51.134;4.156;2022-07-04T05:17:43;0.40;;;0.40;;
23086;SDS011;11712;51.134;4.156;2022-07-04T05:20:09;0.40;;;0.40;;
23086;SDS011;11712;51.134;4.156;2022-07-04T05:22:35;0.40;;;0.40;;
23086;SDS011;11712;51.134;4.156;2022-07-04T05:25:01;0.40;;;0.40;;
23086;SDS011;11712;51.134;4.156;2022-07-04T05:27:27;0.40;;;0.40;;
23086;SDS011;11712;51.134;4.156;2022-07-04T05:29:53;0.40;;;0.40;;
23086;SDS011;11712;51.134;4.156;2022-07-04T05:32:18;0.40;;;0.40;;
23086;SDS011;11712;51.134;4.156;2022-07-04T05:34:44;0.40;;;0.40;;
23086;SDS011;11712;51.134;4.156;2022-07-04T05:37:10;0.40;;;0.40;;
23086;SDS011;11712;51.134;4.156;2022-07-04T05:39:35;0.40;;;0.40;;
23086;SDS011;11712;51.134;4.156;2022-07-04T05:42:01;0.40;;;0.40;;
23086;SDS011;11712;51.134;4.156;2022-07-04T05:44:27;0.40;;;0.40;;
23086;SDS011;11712;51.134;4.156;2022-07-04T05:46:53;0.40;;;0.40;;
23086;SDS011;11712;51.134;4.156;2022-07-04T05:49:19;0.40;;;0.40;;
23086;SDS011;11712;51.134;4.156;2022-07-04T05:51:45;0.40;;;0.40;;
23086;SDS011;11712;51.134;4.156;2022-07-04T05:54:10;0.40;;;0.40;;
23086;SDS011;11712;51.134;4.156;2022-07-04T05:56:36;0.35;;;0.35;;
23086;SDS011;11712;51.134;4.156;2022-07-04T05:59:03;0.40;;;0.40;;
23086;SDS011;11712;51.134;4.156;2022-07-04T06:01:28;0.40;;;0.40;;
23086;SDS011;11712;51.134;4.156;2022-07-04T06:03:54;0.40;;;0.40;;
23086;SDS011;11712;51.134;4.156;2022-07-04T06:06:19;0.40;;;0.40;;
23086;SDS011;11712;51.134;4.156;2022-07-04T06:08:45;0.40;;;0.40;;
23086;SDS011;11712;51.134;4.156;2022-07-04T06:11:11;0.40;;;0.40;;
23086;SDS011;11712;51.134;4.156;2022-07-04T06:13:37;0.40;;;0.40;;
23086;SDS011;11712;51.134;4.156;2022-07-04T06:16:02;0.40;;;0.40;;
23086;SDS011;11712;51.134;4.156;2022-07-04T06:18:28;0.30;;;0.30;;
23086;SDS011;11712;51.134;4.156;2022-07-04T06:20:54;0.40;;;0.40;;
23086;SDS011;11712;51.134;4.156;2022-07-04T06:23:20;0.50;;;0.50;;
23086;SDS011;11712;51.134;4.156;2022-07-04T06:25:46;0.40;;;0.40;;
23086;SDS011;11712;51.134;4.156;2022-07-04T06:28:11;0.40;;;0.40;;
23086;SDS011;11712;51.134;4.156;2022-07-04T06:30:37;0.40;;;0.40;;
23086;SDS011;11712;51.134;4.156;2022-07-04T06:33:02;0.40;;;0.40;;
23086;SDS011;11712;51.134;4.156;2022-07-04T06:35:29;0.40;;;0.40;;
23086;SDS011;11712;51.134;4.156;2022-07-04T06:38:12;0.40;;;0.40;;
23086;SDS011;11712;51.134;4.156;2022-07-04T06:40:39;0.40;;;0.40;;
23086;SDS011;11712;51.134;4.156;2022-07-04T06:43:05;0.40;;;0.40;;
23086;SDS011;11712;51.134;4.156;2022-07-04T06:45:31;0.40;;;0.40;;
23086;SDS011;11712;51.134;4.156;2022-07-04T06:48:00;0.40;;;0.40;;
23086;SDS011;11712;51.134;4.156;2022-07-04T06:50:27;0.40;;;0.40;;
23086;SDS011;11712;51.134;4.156;2022-07-04T06:52:52;0.40;;;0.40;;
23086;SDS011;11712;51.134;4.156;2022-07-04T06:55:37;0.40;;;0.40;;
23086;SDS011;11712;51.134;4.156;2022-07-04T06:58:03;0.40;;;0.40;;
23086;SDS011;11712;51.134;4.156;2022-07-04T07:00:30;0.40;;;0.40;;
23086;SDS011;11712;51.134;4.156;2022-07-04T07:02:57;0.40;;;0.40;;
23086;SDS011;11712;51.134;4.156;2022-07-04T07:05:23;0.40;;;0.40;;
23086;SDS011;11712;51.134;4.156;2022-07-04T07:07:50;0.40;;;0.40;;
23086;SDS011;11712;51.134;4.156;2022-07-04T07:10:15;0.40;;;0.40;;
23086;SDS011;11712;51.134;4.156;2022-07-04T07:12:41;0.40;;;0.40;;
23086;SDS011;11712;51.134;4.156;2022-07-04T07:15:07;0.40;;;0.40;;
23086;SDS011;11712;51.134;4.156;2022-07-04T07:17:33;0.40;;;0.40;;
23086;SDS011;11712;51.134;4.156;2022-07-04T07:19:59;0.40;;;0.40;;
23086;SDS011;11712;51.134;4.156;2022-07-04T07:22:25;0.40;;;0.40;;
23086;SDS011;11712;51.134;4.156;2022-07-04T07:24:51;0.40;;;0.40;;
23086;SDS011;11712;51.134;4.156;2022-07-04T07:27:17;0.40;;;0.40;;
23086;SDS011;11712;51.134;4.156;2022-07-04T07:29:43;0.40;;;0.40;;
23086;SDS011;11712;51.134;4.156;2022-07-04T07:32:09;0.30;;;0.30;;
23086;SDS011;11712;51.134;4.156;2022-07-04T07:34:34;0.40;;;0.40;;
23086;SDS011;11712;51.134;4.156;2022-07-04T07:37:00;0.30;;;0.30;;
23086;SDS011;11712;51.134;4.156;2022-07-04T07:39:27;0.38;;;0.38;;
23086;SDS011;11712;51.134;4.156;2022-07-04T07:41:52;0.40;;;0.40;;
23086;SDS011;11712;51.134;4.156;2022-07-04T07:44:18;0.38;;;0.38;;
23086;SDS011;11712;51.134;4.156;2022-07-04T07:46:44;0.30;;;0.30;;
23086;SDS011;11712;51.134;4.156;2022-07-04T07:49:10;0.40;;;0.40;;
23086;SDS011;11712;51.134;4.156;2022-07-04T07:51:35;0.30;;;0.30;;
23086;SDS011;11712;51.134;4.156;2022-07-04T07:54:01;0.30;;;0.30;;
23086;SDS011;11712;51.134;4.156;2022-07-04T07:56:27;0.30;;;0.30;;
23086;SDS011;11712;51.134;4.156;2022-07-04T07:58:53;0.40;;;0.40;;
23086;SDS011;11712;51.134;4.156;2022-07-04T08:01:19;0.40;;;0.40;;
23086;SDS011;11712;51.134;4.156;2022-07-04T08:03:45;0.40;;;0.40;;
23086;SDS011;11712;51.134;4.156;2022-07-04T08:06:30;0.35;;;0.35;;
23086;SDS011;11712;51.134;4.156;2022-07-04T08:08:57;0.32;;;0.32;;
23086;SDS011;11712;51.134;4.156;2022-07-04T08:11:23;0.30;;;0.30;;
23086;SDS011;11712;51.134;4.156;2022-07-04T08:13:49;0.40;;;0.40;;
23086;SDS011;11712;51.134;4.156;2022-07-04T08:16:15;0.30;;;0.30;;
23086;SDS011;11712;51.134;4.156;2022-07-04T08:18:41;0.40;;;0.40;;
23086;SDS011;11712;51.134;4.156;2022-07-04T08:21:07;0.30;;;0.30;;
23086;SDS011;11712;51.134;4.156;2022-07-04T08:23:33;0.35;;;0.35;;
23086;SDS011;11712;51.134;4.156;2022-07-04T08:26:00;0.40;;;0.40;;
23086;SDS011;11712;51.134;4.156;2022-07-04T08:28:26;0.40;;;0.40;;
23086;SDS011;11712;51.134;4.156;2022-07-04T08:30:53;0.40;;;0.40;;
23086;SDS011;11712;51.134;4.156;2022-07-04T08:33:19;0.40;;;0.40;;
23086;SDS011;11712;51.134;4.156;2022-07-04T08:35:45;0.38;;;0.38;;
23086;SDS011;11712;51.134;4.156;2022-07-04T08:38:11;0.40;;;0.40;;
23086;SDS011;11712;51.134;4.156;2022-07-04T08:40:37;0.30;;;0.30;;
23086;SDS011;11712;51.134;4.156;2022-07-04T08:43:03;0.30;;;0.30;;
23086;SDS011;11712;51.134;4.156;2022-07-04T08:45:32;0.40;;;0.40;;
23086;SDS011;11712;51.134;4.156;2022-07-04T08:48:02;0.30;;;0.30;;
23086;SDS011;11712;51.134;4.156;2022-07-04T08:50:32;0.30;;;0.30;;
23086;SDS011;11712;51.134;4.156;2022-07-04T08:53:06;0.40;;;0.40;;
23086;SDS011;11712;51.134;4.156;2022-07-04T08:58:38;0.40;;;0.40;;
23086;SDS011;11712;51.134;4.156;2022-07-04T09:01:07;0.30;;;0.30;;
23086;SDS011;11712;51.134;4.156;2022-07-04T09:03:43;0.30;;;0.30;;
23086;SDS011;11712;51.134;4.156;2022-07-04T09:06:10;0.30;;;0.30;;
23086;SDS011;11712;51.134;4.156;2022-07-04T09:08:37;0.30;;;0.30;;
23086;SDS011;11712;51.134;4.156;2022-07-04T09:11:04;0.30;;;0.30;;
23086;SDS011;11712;51.134;4.156;2022-07-04T09:13:31;0.30;;;0.30;;
23086;SDS011;11712;51.134;4.156;2022-07-04T09:15:57;0.40;;;0.40;;
23086;SDS011;11712;51.134;4.156;2022-07-04T09:18:24;0.30;;;0.30;;
23086;SDS011;11712;51.134;4.156;2022-07-04T09:20:52;0.30;;;0.30;;
23086;SDS011;11712;51.134;4.156;2022-07-04T09:23:21;0.30;;;0.30;;
23086;SDS011;11712;51.134;4.156;2022-07-04T09:28:40;0.30;;;0.30;;
23086;SDS011;11712;51.134;4.156;2022-07-04T09:31:18;0.30;;;0.30;;
23086;SDS011;11712;51.134;4.156;2022-07-04T09:33:52;0.30;;;0.30;;
23086;SDS011;11712;51.134;4.156;2022-07-04T09:36:23;0.30;;;0.30;;
23086;SDS011;11712;51.134;4.156;2022-07-04T09:44:29;0.28;;;0.28;;
23086;SDS011;11712;51.134;4.156;2022-07-04T09:50:01;0.30;;;0.30;;
23086;SDS011;11712;51.134;4.156;2022-07-04T09:52:30;0.30;;;0.30;;
23086;SDS011;11712;51.134;4.156;2022-07-04T09:54:59;0.30;;;0.30;;
23086;SDS011;11712;51.134;4.156;2022-07-04T09:57:32;0.30;;;0.30;;
23086;SDS011;11712;51.134;4.156;2022-07-04T10:00:20;0.30;;;0.30;;
23086;SDS011;11712;51.134;4.156;2022-07-04T10:05:47;0.30;;;0.30;;
23086;SDS011;11712;51.134;4.156;2022-07-04T10:08:26;0.40;;;0.40;;
23086;SDS011;11712;51.134;4.156;2022-07-04T10:10:56;0.30;;;0.30;;
23086;SDS011;11712;51.134;4.156;2022-07-04T10:13:23;0.30;;;0.30;;
23086;SDS011;11712;51.134;4.156;2022-07-04T10:15:49;0.30;;;0.30;;
23086;SDS011;11712;51.134;4.156;2022-07-04T10:18:15;0.30;;;0.30;;
23086;SDS011;11712;51.134;4.156;2022-07-04T10:20:46;0.30;;;0.30;;
23086;SDS011;11712;51.134;4.156;2022-07-04T10:23:14;0.30;;;0.30;;
23086;SDS011;11712;51.134;4.156;2022-07-04T10:25:40;0.30;;;0.30;;
23086;SDS011;11712;51.134;4.156;2022-07-04T10:28:07;0.30;;;0.30;;
23086;SDS011;11712;51.134;4.156;2022-07-04T10:30:36;0.30;;;0.30;;
23086;SDS011;11712;51.134;4.156;2022-07-04T10:33:04;0.30;;;0.30;;
23086;SDS011;11712;51.134;4.156;2022-07-04T10:35:54;0.30;;;0.30;;
23086;SDS011;11712;51.134;4.156;2022-07-04T10:38:22;0.30;;;0.30;;
23086;SDS011;11712;51.134;4.156;2022-07-04T10:40:49;0.30;;;0.30;;
23086;SDS011;11712;51.134;4.156;2022-07-04T10:45:53;0.30;;;0.30;;
23086;SDS011;11712;51.134;4.156;2022-07-04T10:48:19;0.30;;;0.30;;
23086;SDS011;11712;51.134;4.156;2022-07-04T10:51:01;0.30;;;0.30;;
23086;SDS011;11712;51.134;4.156;2022-07-04T10:53:28;0.30;;;0.30;;
23086;SDS011;11712;51.134;4.156;2022-07-04T10:56:03;0.30;;;0.30;;
23086;SDS011;11712;51.134;4.156;2022-07-04T10:58:41;0.30;;;0.30;;
23086;SDS011;11712;51.134;4.156;2022-07-04T11:01:14;0.30;;;0.30;;
23086;SDS011;11712;51.134;4.156;2022-07-04T11:03:44;0.30;;;0.30;;
23086;SDS011;11712;51.134;4.156;2022-07-04T11:19:34;0.30;;;0.30;;
23086;SDS011;11712;51.134;4.156;2022-07-04T11:22:00;0.30;;;0.30;;
23086;SDS011;11712;51.134;4.156;2022-07-04T11:24:27;0.30;;;0.30;;
23086;SDS011;11712;51.134;4.156;2022-07-04T11:26:53;0.30;;;0.30;;
23086;SDS011;11712;51.134;4.156;2022-07-04T11:29:18;0.30;;;0.30;;
23086;SDS011;11712;51.134;4.156;2022-07-04T11:31:46;0.30;;;0.30;;
23086;SDS011;11712;51.134;4.156;2022-07-04T11:34:13;0.30;;;0.30;;
23086;SDS011;11712;51.134;4.156;2022-07-04T11:36:40;0.30;;;0.30;;
23086;SDS011;11712;51.134;4.156;2022-07-04T11:39:10;0.30;;;0.30;;
23086;SDS011;11712;51.134;4.156;2022-07-04T11:41:41;0.30;;;0.30;;
23086;SDS011;11712;51.134;4.156;2022-07-04T11:44:31;0.30;;;0.30;;
23086;SDS011;11712;51.134;4.156;2022-07-04T11:49:48;0.30;;;0.30;;
23086;SDS011;11712;51.134;4.156;2022-07-04T11:52:22;0.30;;;0.30;;
23086;SDS011;11712;51.134;4.156;2022-07-04T11:54:50;0.30;;;0.30;;
23086;SDS011;11712;51.134;4.156;2022-07-04T11:57:21;0.30;;;0.30;;
23086;SDS011;11712;51.134;4.156;2022-07-04T11:59:53;0.30;;;0.30;;
23086;SDS011;11712;51.134;4.156;2022-07-04T12:02:20;0.30;;;0.30;;
23086;SDS011;11712;51.134;4.156;2022-07-04T12:04:46;0.30;;;0.30;;
23086;SDS011;11712;51.134;4.156;2022-07-04T12:07:12;0.30;;;0.30;;
23086;SDS011;11712;51.134;4.156;2022-07-04T12:09:43;0.30;;;0.30;;
23086;SDS011;11712;51.134;4.156;2022-07-04T12:12:10;0.30;;;0.30;;
23086;SDS011;11712;51.134;4.156;2022-07-04T12:14:37;0.30;;;0.30;;
23086;SDS011;11712;51.134;4.156;2022-07-04T12:19:38;0.30;;;0.30;;
23086;SDS011;11712;51.134;4.156;2022-07-04T12:23:09;0.30;;;0.30;;
23086;SDS011;11712;51.134;4.156;2022-07-04T12:28:12;0.30;;;0.30;;
23086;SDS011;11712;51.134;4.156;2022-07-04T12:30:40;0.30;;;0.30;;
23086;SDS011;11712;51.134;4.156;2022-07-04T12:33:20;0.25;;;0.25;;
23086;SDS011;11712;51.134;4.156;2022-07-04T12:38:25;0.30;;;0.30;;
23086;SDS011;11712;51.134;4.156;2022-07-04T12:41:00;0.30;;;0.30;;
23086;SDS011;11712;51.134;4.156;2022-07-04T12:43:43;0.20;;;0.20;;
23086;SDS011;11712;51.134;4.156;2022-07-04T12:48:50;0.30;;;0.30;;
23086;SDS011;11712;51.134;4.156;2022-07-04T12:51:17;0.30;;;0.30;;
23086;SDS011;11712;51.134;4.156;2022-07-04T12:53:46;0.30;;;0.30;;
23086;SDS011;11712;51.134;4.156;2022-07-04T12:58:56;0.30;;;0.30;;
23086;SDS011;11712;51.134;4.156;2022-07-04T13:01:23;0.30;;;0.30;;
23086;SDS011;11712;51.134;4.156;2022-07-04T13:03:49;0.30;;;0.30;;
23086;SDS011;11712;51.134;4.156;2022-07-04T13:06:15;0.30;;;0.30;;
23086;SDS011;11712;51.134;4.156;2022-07-04T13:08:40;0.30;;;0.30;;
23086;SDS011;11712;51.134;4.156;2022-07-04T13:11:06;0.30;;;0.30;;
23086;SDS011;11712;51.134;4.156;2022-07-04T13:13:50;0.30;;;0.30;;
23086;SDS011;11712;51.134;4.156;2022-07-04T13:16:16;0.30;;;0.30;;
23086;SDS011;11712;51.134;4.156;2022-07-04T13:18:42;0.25;;;0.25;;
23086;SDS011;11712;51.134;4.156;2022-07-04T13:21:07;0.30;;;0.30;;
23086;SDS011;11712;51.134;4.156;2022-07-04T13:23:33;0.30;;;0.30;;
23086;SDS011;11712;51.134;4.156;2022-07-04T13:25:58;0.30;;;0.30;;
23086;SDS011;11712;51.134;4.156;2022-07-04T13:28:24;0.25;;;0.25;;
23086;SDS011;11712;51.134;4.156;2022-07-04T13:30:50;0.30;;;0.30;;
23086;SDS011;11712;51.134;4.156;2022-07-04T13:33:15;0.30;;;0.30;;
23086;SDS011;11712;51.134;4.156;2022-07-04T13:35:41;0.30;;;0.30;;
23086;SDS011;11712;51.134;4.156;2022-07-04T13:38:07;0.30;;;0.30;;
23086;SDS011;11712;51.134;4.156;2022-07-04T13:40:33;0.30;;;0.30;;
23086;SDS011;11712;51.134;4.156;2022-07-04T13:42:58;0.30;;;0.30;;
23086;SDS011;11712;51.134;4.156;2022-07-04T13:45:25;0.30;;;0.30;;
23086;SDS011;11712;51.134;4.156;2022-07-04T13:47:51;0.30;;;0.30;;
23086;SDS011;11712;51.134;4.156;2022-07-04T13:50:17;0.30;;;0.30;;
23086;SDS011;11712;51.134;4.156;2022-07-04T13:52:44;0.30;;;0.30;;
23086;SDS011;11712;51.134;4.156;2022-07-04T13:55:09;0.30;;;0.30;;
23086;SDS011;11712;51.134;4.156;2022-07-04T13:57:35;0.30;;;0.30;;
23086;SDS011;11712;51.134;4.156;2022-07-04T14:00:03;0.25;;;0.25;;
23086;SDS011;11712;51.134;4.156;2022-07-04T14:02:30;0.30;;;0.30;;
23086;SDS011;11712;51.134;4.156;2022-07-04T14:04:55;0.30;;;0.30;;
23086;SDS011;11712;51.134;4.156;2022-07-04T14:07:21;0.30;;;0.30;;
23086;SDS011;11712;51.134;4.156;2022-07-04T14:09:47;0.30;;;0.30;;
23086;SDS011;11712;51.134;4.156;2022-07-04T14:12:13;0.30;;;0.30;;
23086;SDS011;11712;51.134;4.156;2022-07-04T14:14:39;0.30;;;0.30;;
23086;SDS011;11712;51.134;4.156;2022-07-04T14:17:05;0.22;;;0.22;;
23086;SDS011;11712;51.134;4.156;2022-07-04T14:19:31;0.20;;;0.20;;
23086;SDS011;11712;51.134;4.156;2022-07-04T14:21:57;0.30;;;0.30;;
23086;SDS011;11712;51.134;4.156;2022-07-04T14:24:23;0.30;;;0.30;;
23086;SDS011;11712;51.134;4.156;2022-07-04T14:26:50;0.30;;;0.30;;
23086;SDS011;11712;51.134;4.156;2022-07-04T14:29:17;0.30;;;0.30;;
23086;SDS011;11712;51.134;4.156;2022-07-04T14:31:43;0.30;;;0.30;;
23086;SDS011;11712;51.134;4.156;2022-07-04T14:34:09;0.25;;;0.25;;
23086;SDS011;11712;51.134;4.156;2022-07-04T14:36:37;0.30;;;0.30;;
23086;SDS011;11712;51.134;4.156;2022-07-04T14:39:03;0.20;;;0.20;;
23086;SDS011;11712;51.134;4.156;2022-07-04T14:41:29;0.30;;;0.30;;
23086;SDS011;11712;51.134;4.156;2022-07-04T14:43:55;0.30;;;0.30;;
23086;SDS011;11712;51.134;4.156;2022-07-04T14:46:21;0.30;;;0.30;;
23086;SDS011;11712;51.134;4.156;2022-07-04T14:48:46;0.30;;;0.30;;
23086;SDS011;11712;51.134;4.156;2022-07-04T14:51:12;0.30;;;0.30;;
23086;SDS011;11712;51.134;4.156;2022-07-04T14:53:38;0.25;;;0.25;;
23086;SDS011;11712;51.134;4.156;2022-07-04T14:56:03;0.30;;;0.30;;
23086;SDS011;11712;51.134;4.156;2022-07-04T14:58:29;0.20;;;0.20;;
23086;SDS011;11712;51.134;4.156;2022-07-04T15:00:55;0.20;;;0.20;;
23086;SDS011;11712;51.134;4.156;2022-07-04T15:03:21;0.20;;;0.20;;
23086;SDS011;11712;51.134;4.156;2022-07-04T15:05:47;0.20;;;0.20;;
23086;SDS011;11712;51.134;4.156;2022-07-04T15:08:13;0.20;;;0.20;;
23086;SDS011;11712;51.134;4.156;2022-07-04T15:10:39;0.20;;;0.20;;
23086;SDS011;11712;51.134;4.156;2022-07-04T15:13:05;0.20;;;0.20;;
23086;SDS011;11712;51.134;4.156;2022-07-04T15:15:31;0.30;;;0.30;;
23086;SDS011;11712;51.134;4.156;2022-07-04T15:17:57;0.30;;;0.30;;
23086;SDS011;11712;51.134;4.156;2022-07-04T15:20:23;0.30;;;0.30;;
23086;SDS011;11712;51.134;4.156;2022-07-04T15:23:07;0.22;;;0.22;;
23086;SDS011;11712;51.134;4.156;2022-07-04T15:25:51;0.30;;;0.30;;
23086;SDS011;11712;51.134;4.156;2022-07-04T15:28:17;0.22;;;0.22;;
23086;SDS011;11712;51.134;4.156;2022-07-04T15:30:43;0.20;;;0.20;;
23086;SDS011;11712;51.134;4.156;2022-07-04T15:33:08;0.20;;;0.20;;
23086;SDS011;11712;51.134;4.156;2022-07-04T15:35:40;0.30;;;0.30;;
23086;SDS011;11712;51.134;4.156;2022-07-04T15:38:07;0.30;;;0.30;;